Time;durP1;ratioP1;P1;durP2;ratioP2;P2;SDS_P1;SDS_P2;PMS_P1;PMS_P2;Temp;Humidity;BMP_temperature;BMP_pressure;BME280_temperature;BME280_humidity;BME280_pressure;Samples;Min_cycle;Max_cycle;Signal;HPM_P1;HPM_P2
2021/11/25 00:00:34;;;;;;;34.90;23.90;;;;;;;4.69;83.48;100347.36;103374;1312;112753;-63
2021/11/25 00:03:17;;;;;;;30.60;19.90;;;;;;;4.66;83.57;100340.98;103350;1316;109537;-63
2021/11/25 00:05:50;;;;;;;31.20;20.80;;;;;;;4.65;83.54;100344.95;103213;1313;138609;-63
2021/11/25 00:08:22;;;;;;;32.60;20.60;;;;;;;4.64;83.47;100339.28;103377;1313;97821;-63
2021/11/25 00:10:55;;;;;;;30.40;20.20;;;;;;;4.64;83.68;100337.03;103138;1313;139135;-65
2021/11/25 00:13:27;;;;;;;29.50;20.30;;;;;;;4.64;83.48;100326.52;104087;1317;112628;-64
2021/11/25 00:16:01;;;;;;;31.60;21.40;;;;;;;4.65;83.57;100321.86;103318;1312;138284;-64
2021/11/25 00:18:33;;;;;;;29.70;20.90;;;;;;;4.66;83.62;100323.23;103362;1313;108647;-64
2021/11/25 00:21:06;;;;;;;34.90;22.60;;;;;;;4.64;83.61;100322.23;103315;1313;98442;-63
2021/11/25 00:23:41;;;;;;;34.20;21.90;;;;;;;4.60;83.56;100325.70;103707;1316;138921;-63
2021/11/25 00:26:13;;;;;;;30.90;20.80;;;;;;;4.58;83.40;100326.75;103400;1313;112420;-63
2021/11/25 00:28:46;;;;;;;31.40;20.20;;;;;;;4.54;83.36;100321.96;103226;1314;138945;-62
2021/11/25 00:31:18;;;;;;;29.40;20.30;;;;;;;4.53;83.42;100318.88;103686;1318;108898;-63
2021/11/25 00:33:50;;;;;;;32.40;21.10;;;;;;;4.54;83.42;100320.59;103315;1313;139468;-63
2021/11/25 00:36:23;;;;;;;31.10;21.90;;;;;;;4.54;83.68;100318.17;103351;1313;97862;-63
2021/11/25 00:38:55;;;;;;;32.90;22.30;;;;;;;4.57;83.75;100312.99;104701;1315;112082;-63
2021/11/25 00:41:27;;;;;;;31.70;22.00;;;;;;;4.61;83.56;100313.64;104528;1319;138356;-64
2021/11/25 00:43:59;;;;;;;34.20;22.90;;;;;;;4.61;83.51;100314.33;103490;1313;108997;-63
2021/11/25 00:46:32;;;;;;;33.30;21.70;;;;;;;4.59;83.47;100306.42;103026;1314;137895;-64
2021/11/25 00:49:05;;;;;;;34.80;21.50;;;;;;;4.55;83.46;100307.49;103361;1313;97969;-63
2021/11/25 00:51:38;;;;;;;33.60;22.40;;;;;;;4.53;83.65;100303.55;103281;1315;139859;-63
2021/11/25 00:54:10;;;;;;;34.00;22.30;;;;;;;4.51;83.52;100304.94;103349;1313;108275;-63
2021/11/25 00:56:43;;;;;;;32.50;21.30;;;;;;;4.52;83.52;100303.73;103346;1315;109463;-63
2021/11/25 00:59:15;;;;;;;33.70;22.40;;;;;;;4.55;83.52;100296.81;103218;1312;138597;-63
2021/11/25 01:01:47;;;;;;;33.90;22.70;;;;;;;4.59;83.35;100297.64;104347;1314;97930;-63
2021/11/25 01:04:22;;;;;;;36.80;24.00;;;;;;;4.59;83.81;100297.30;103478;1315;138930;-63
2021/11/25 01:06:54;;;;;;;37.10;23.20;;;;;;;4.62;83.72;100298.48;103417;1312;108597;-63
2021/11/25 01:09:27;;;;;;;35.90;23.70;;;;;;;4.58;83.70;100295.40;103374;1313;109137;-63
2021/11/25 01:12:01;;;;;;;34.20;23.50;;;;;;;4.55;83.50;100296.98;103716;1319;138361;-63
2021/11/25 01:14:35;;;;;;;33.80;22.50;;;;;;;4.50;83.62;100295.13;103377;1313;97766;-63
2021/11/25 01:17:08;;;;;;;33.30;21.80;;;;;;;4.50;83.65;100287.55;103277;1316;138554;-63
2021/11/25 01:19:41;;;;;;;31.30;21.30;;;;;;;4.51;83.69;100284.11;103357;1313;109133;-62
2021/11/25 01:22:13;;;;;;;37.60;23.70;;;;;;;4.53;83.67;100280.65;103429;1313;138608;-63
2021/11/25 01:24:46;;;;;;;31.70;22.70;;;;;;;4.51;83.58;100274.13;103445;1313;97844;-63
2021/11/25 01:27:18;;;;;;;36.10;24.00;;;;;;;4.48;83.58;100276.88;103380;1313;98559;-62
2021/11/25 01:29:51;;;;;;;44.20;26.90;;;;;;;4.45;83.81;100274.15;103435;1313;137904;-63
2021/11/25 01:32:23;;;;;;;41.10;26.70;;;;;;;4.43;83.96;100274.52;103289;1312;108988;-63
2021/11/25 01:34:56;;;;;;;39.40;25.00;;;;;;;4.36;83.93;100272.15;103277;1310;139208;-63
2021/11/25 01:37:28;;;;;;;39.80;25.10;;;;;;;4.32;83.76;100269.25;104695;1312;96822;-63
2021/11/25 01:40:00;;;;;;;41.40;26.20;;;;;;;4.29;83.98;100265.47;104655;1315;138734;-63
2021/11/25 01:42:32;;;;;;;42.00;27.30;;;;;;;4.29;83.99;100262.71;104689;1312;112629;-63
2021/11/25 01:45:06;;;;;;;48.90;30.00;;;;;;;4.32;84.27;100264.95;104099;1312;109089;-63
2021/11/25 01:47:41;;;;;;;47.20;30.50;;;;;;;4.33;84.22;100262.20;103283;1314;138072;-63
2021/11/25 01:50:15;;;;;;;47.60;31.10;;;;;;;4.35;84.22;100263.39;104039;1313;96207;-63
2021/11/25 01:52:48;;;;;;;47.00;29.80;;;;;;;4.31;84.22;100262.55;104562;1313;138405;-63
2021/11/25 01:55:23;;;;;;;47.30;29.80;;;;;;;4.30;84.15;100260.81;103957;1314;111669;-63
2021/11/25 01:57:55;;;;;;;42.30;28.70;;;;;;;4.27;84.17;100255.33;103300;1313;139069;-63
2021/11/25 02:00:32;;;;;;;39.00;25.90;;;;;;;4.30;84.25;100253.58;104548;1317;107901;-63
2021/11/25 02:03:06;;;;;;;37.60;24.70;;;;;;;4.28;84.18;100243.79;104509;1313;96245;-63
2021/11/25 02:05:38;;;;;;;37.40;24.30;;;;;;;4.28;84.26;100235.17;103728;1313;139543;-62
2021/11/25 02:08:11;;;;;;;40.20;25.50;;;;;;;4.28;84.23;100233.46;104178;1313;111624;-63
2021/11/25 02:10:45;;;;;;;38.20;25.50;;;;;;;4.29;84.30;100233.98;104595;1313;139368;-63
2021/11/25 02:13:18;;;;;;;35.80;23.80;;;;;;;4.25;84.02;100228.66;103875;1314;110247;-62
2021/11/25 02:15:52;;;;;;;36.40;23.20;;;;;;;4.23;84.04;100225.58;103264;1312;138887;-63
2021/11/25 02:18:28;;;;;;;34.50;22.50;;;;;;;4.23;84.18;100223.01;103287;1313;97852;-63
2021/11/25 02:21:01;;;;;;;33.70;21.80;;;;;;;4.24;84.30;100222.81;103387;1312;112865;-63
2021/11/25 02:23:34;;;;;;;35.70;22.60;;;;;;;4.27;83.96;100220.73;103567;1313;138840;-63
2021/11/25 02:26:07;;;;;;;34.10;22.50;;;;;;;4.29;84.09;100217.79;103387;1316;109001;-63
2021/11/25 02:28:41;;;;;;;38.80;24.10;;;;;;;4.27;84.17;100214.54;103272;1312;138092;-63
2021/11/25 02:31:13;;;;;;;37.00;23.90;;;;;;;4.24;83.84;100215.08;103377;1313;98344;-63
2021/11/25 02:33:45;;;;;;;40.10;24.60;;;;;;;4.20;83.94;100215.96;104631;1312;138305;-63
2021/11/25 02:36:17;;;;;;;38.40;24.20;;;;;;;4.16;83.80;100212.39;103566;1321;108905;-63
2021/11/25 02:38:50;;;;;;;35.00;22.80;;;;;;;4.15;83.96;100210.85;104668;1312;109770;-63
2021/11/25 02:41:23;;;;;;;42.40;24.00;;;;;;;4.14;84.10;100203.11;103348;1311;138833;-63
2021/11/25 02:43:57;;;;;;;35.90;23.50;;;;;;;4.14;83.97;100199.66;103732;1313;97893;-63
2021/11/25 02:46:29;;;;;;;36.90;23.50;;;;;;;4.16;83.98;100194.32;104474;1314;138683;-63
2021/11/25 02:49:02;;;;;;;40.70;24.70;;;;;;;4.20;83.93;100194.63;103410;1312;108792;-63
2021/11/25 02:51:35;;;;;;;40.80;26.20;;;;;;;4.24;83.94;100187.02;103664;1312;108909;-63
2021/11/25 02:54:07;;;;;;;42.80;26.20;;;;;;;4.28;83.97;100185.95;103271;1312;138149;-62
2021/11/25 02:56:39;;;;;;;37.20;23.30;;;;;;;4.28;83.91;100186.48;103201;1314;97951;-64
2021/11/25 02:59:12;;;;;;;39.80;24.30;;;;;;;4.23;83.53;100183.08;103331;1312;138430;-62
2021/11/25 03:01:45;;;;;;;37.00;23.10;;;;;;;4.21;83.52;100182.91;103331;1312;110255;-65
2021/11/25 03:04:18;;;;;;;32.90;22.60;;;;;;;4.20;83.69;100180.69;103119;1314;139230;-65
2021/11/25 03:06:51;;;;;;;32.80;22.30;;;;;;;4.24;83.79;100180.31;103417;1312;97950;-63
2021/11/25 03:09:23;;;;;;;34.40;22.50;;;;;;;4.25;83.71;100171.35;103657;1314;97743;-62
2021/11/25 03:11:55;;;;;;;33.90;22.00;;;;;;;4.28;83.48;100170.46;103775;1319;137803;-63
2021/11/25 03:14:27;;;;;;;36.80;23.90;;;;;;;4.25;83.32;100164.46;104718;1312;108972;-63
2021/11/25 03:17:00;;;;;;;36.20;22.50;;;;;;;4.22;83.38;100160.70;104622;1312;138588;-63
2021/11/25 03:19:32;;;;;;;37.90;23.80;;;;;;;4.20;83.33;100159.52;104698;1315;95844;-63
2021/11/25 03:22:04;;;;;;;34.90;24.10;;;;;;;4.20;83.04;100158.66;104604;1313;138501;-63
2021/11/25 03:24:36;;;;;;;36.30;23.30;;;;;;;4.19;83.20;100149.73;104091;1312;112631;-63
2021/11/25 03:27:10;;;;;;;38.60;23.10;;;;;;;4.22;83.33;100151.76;103336;1313;108925;-62
2021/11/25 03:29:42;;;;;;;32.90;22.50;;;;;;;4.23;82.82;100153.30;103765;1313;138677;-63
2021/11/25 03:32:14;;;;;;;37.00;24.10;;;;;;;4.21;82.74;100146.44;104720;1313;95797;-63
2021/11/25 03:34:46;;;;;;;39.40;24.20;;;;;;;4.21;82.72;100151.43;104639;1312;137812;-63
2021/11/25 03:37:19;;;;;;;37.60;23.70;;;;;;;4.19;82.55;100142.66;103655;1318;113233;-64
2021/11/25 03:39:51;;;;;;;35.80;22.20;;;;;;;4.17;82.47;100134.61;104358;1314;139474;-63
2021/11/25 03:42:24;;;;;;;32.10;21.80;;;;;;;4.16;82.47;100132.38;103621;1311;107911;-63
2021/11/25 03:44:57;;;;;;;36.10;21.70;;;;;;;4.17;82.52;100129.61;103417;1313;97923;-63
2021/11/25 03:47:29;;;;;;;33.40;22.50;;;;;;;4.21;82.63;100123.73;103266;1312;138769;-64
2021/11/25 03:50:01;;;;;;;35.60;22.50;;;;;;;4.24;82.57;100125.76;104748;1312;111549;-64
2021/11/25 03:52:33;;;;;;;36.60;23.90;;;;;;;4.27;82.41;100125.38;104588;1315;138020;-64
2021/11/25 03:55:08;;;;;;;38.20;24.20;;;;;;;4.27;82.17;100116.60;104440;1314;108991;-64
2021/11/25 03:57:41;;;;;;;38.80;24.40;;;;;;;4.25;82.31;100112.65;104724;1318;96060;-64
2021/11/25 04:00:15;;;;;;;37.80;24.00;;;;;;;4.22;82.09;100109.09;104638;1313;140534;-64
2021/11/25 04:02:49;;;;;;;36.70;23.40;;;;;;;4.21;82.23;100104.97;103865;1316;112536;-64
2021/11/25 04:05:22;;;;;;;37.30;23.50;;;;;;;4.22;82.04;100105.80;103388;1317;138803;-64
2021/11/25 04:07:54;;;;;;;37.30;23.30;;;;;;;4.26;82.26;100105.44;103377;1314;108734;-64
2021/11/25 04:10:27;;;;;;;36.30;24.60;;;;;;;4.25;82.04;100104.75;103317;1312;138254;-64
2021/11/25 04:13:00;;;;;;;40.30;26.10;;;;;;;4.27;82.09;100103.18;103422;1315;97874;-64
2021/11/25 04:15:33;;;;;;;41.50;27.20;;;;;;;4.26;82.19;100100.95;103417;1317;112546;-63
2021/11/25 04:18:06;;;;;;;41.90;26.30;;;;;;;4.23;81.87;100093.41;103251;1317;137999;-64
2021/11/25 04:20:38;;;;;;;40.80;26.10;;;;;;;4.18;81.78;100092.94;103815;1314;109186;-63
2021/11/25 04:23:11;;;;;;;48.60;28.20;;;;;;;4.11;81.73;100092.81;103271;1312;138849;-64
2021/11/25 04:25:44;;;;;;;40.50;26.10;;;;;;;4.09;82.05;100091.28;103531;1313;97884;-63
2021/11/25 04:28:16;;;;;;;43.70;27.90;;;;;;;4.06;81.86;100081.52;103794;1315;139875;-64
2021/11/25 04:30:54;;;;;;;41.70;27.00;;;;;;;4.05;81.93;100077.23;104579;1309;109050;-64
2021/11/25 04:36:17;;;;;;;50.90;30.20;;;;;;;3.95;81.66;100067.50;103219;1315;137978;-64
2021/11/25 04:38:49;;;;;;;52.70;30.70;;;;;;;3.90;81.79;100064.10;104700;1313;95857;-64
2021/11/25 04:41:22;;;;;;;42.60;27.10;;;;;;;3.84;81.65;100058.64;103326;1314;138509;-63
2021/11/25 04:43:54;;;;;;;43.90;27.80;;;;;;;3.79;81.75;100053.02;103419;1313;109217;-63
2021/11/25 04:46:27;;;;;;;46.10;27.90;;;;;;;3.77;81.78;100054.40;103202;1312;140092;-64
2021/11/25 04:49:00;;;;;;;46.00;27.90;;;;;;;3.75;81.78;100048.89;104715;1315;96181;-64
2021/11/25 04:51:32;;;;;;;49.40;29.80;;;;;;;3.75;81.84;100052.17;103536;1314;97895;-64
2021/11/25 04:54:06;;;;;;;44.10;28.60;;;;;;;3.73;81.79;100049.77;103286;1319;138099;-64
2021/11/25 04:56:39;;;;;;;51.10;30.00;;;;;;;3.70;81.44;100049.46;103452;1313;109268;-64
2021/11/25 04:59:12;;;;;;;44.80;28.20;;;;;;;3.66;81.32;100050.19;103363;1316;138962;-64
2021/11/25 05:01:45;;;;;;;45.40;27.90;;;;;;;3.59;81.25;100050.91;103454;1318;98601;-64
2021/11/25 05:04:18;;;;;;;42.30;27.50;;;;;;;3.56;81.46;100041.64;104415;1314;138582;-64
2021/11/25 05:06:50;;;;;;;41.80;26.10;;;;;;;3.54;81.55;100040.97;104677;1315;112430;-64
2021/11/25 05:09:22;;;;;;;44.10;27.60;;;;;;;3.50;81.10;100034.65;103894;1316;108929;-64
2021/11/25 05:11:55;;;;;;;44.20;28.30;;;;;;;3.49;81.28;100030.19;104467;1315;139018;-64
2021/11/25 05:14:27;;;;;;;43.70;27.70;;;;;;;3.49;81.28;100028.30;104678;1315;97734;-64
2021/11/25 05:17:00;;;;;;;51.50;29.40;;;;;;;3.48;81.13;100028.65;103629;1313;138661;-63
2021/11/25 05:19:32;;;;;;;41.80;26.30;;;;;;;3.46;81.22;100026.42;103425;1314;112452;-64
2021/11/25 05:22:06;;;;;;;43.00;25.70;;;;;;;3.44;80.92;100023.70;103185;1313;139446;-64
2021/11/25 05:24:39;;;;;;;41.20;26.40;;;;;;;3.41;80.91;100021.29;104287;1313;108778;-64
2021/11/25 05:27:12;;;;;;;40.20;25.80;;;;;;;3.40;80.88;100019.75;103313;1314;97874;-64
2021/11/25 05:29:44;;;;;;;38.30;24.50;;;;;;;3.38;80.90;100014.78;104661;1315;138685;-63
2021/11/25 05:32:17;;;;;;;40.00;25.30;;;;;;;3.35;80.62;100011.55;104712;1315;112789;-64
2021/11/25 05:34:50;;;;;;;47.10;27.70;;;;;;;3.29;80.59;100002.31;103626;1318;138947;-63
2021/11/25 05:37:22;;;;;;;44.10;28.70;;;;;;;3.26;80.62;100007.67;103389;1317;108844;-64
2021/11/25 05:39:55;;;;;;;45.70;26.70;;;;;;;3.21;80.78;100007.16;103365;1315;97828;-64
2021/11/25 05:42:27;;;;;;;45.40;27.00;;;;;;;3.14;80.53;100007.73;103289;1318;138973;-64
2021/11/25 05:45:01;;;;;;;40.80;25.80;;;;;;;3.09;80.68;100002.61;103588;1313;112621;-64
2021/11/25 05:47:36;;;;;;;35.90;24.20;;;;;;;3.05;80.68;100002.10;103343;1314;139093;-63
2021/11/25 05:50:12;;;;;;;45.30;26.50;;;;;;;3.02;80.83;100001.26;103699;1320;109047;-65
2021/11/25 05:52:45;;;;;;;42.60;26.90;;;;;;;2.99;80.84;100001.97;103926;1313;138861;-64
2021/11/25 05:55:18;;;;;;;44.10;27.10;;;;;;;2.93;80.68;100005.10;103407;1313;98159;-64
2021/11/25 05:57:52;;;;;;;46.60;28.40;;;;;;;2.88;80.66;100008.39;103424;1319;111393;-64
2021/11/25 06:00:25;;;;;;;40.70;26.80;;;;;;;2.80;80.75;100008.42;104249;1316;138164;-63
2021/11/25 06:02:58;;;;;;;45.10;26.00;;;;;;;2.74;80.72;100011.73;104018;1314;108481;-64
2021/11/25 06:05:30;;;;;;;46.70;26.20;;;;;;;2.68;80.84;100008.65;103660;1313;138879;-63
2021/11/25 06:08:03;;;;;;;41.10;25.50;;;;;;;2.64;80.83;100011.73;103442;1317;97844;-64
2021/11/25 06:10:36;;;;;;;36.80;24.30;;;;;;;2.60;81.01;100012.11;104569;1317;139258;-64
2021/11/25 06:13:08;;;;;;;47.30;27.90;;;;;;;2.55;80.97;100010.75;103397;1314;109055;-64
2021/11/25 06:15:41;;;;;;;41.90;26.80;;;;;;;2.51;80.90;100009.05;103247;1314;108825;-63
2021/11/25 06:18:13;;;;;;;41.60;28.30;;;;;;;2.47;80.86;100005.11;103894;1316;137888;-65
2021/11/25 06:20:45;;;;;;;45.60;27.80;;;;;;;2.40;80.89;100004.11;103594;1313;97737;-63
2021/11/25 06:23:20;;;;;;;41.00;26.50;;;;;;;2.33;80.95;100005.50;103270;1315;138685;-64
2021/11/25 06:25:53;;;;;;;44.40;26.60;;;;;;;2.30;81.02;99995.38;103440;1312;108795;-64
2021/11/25 06:28:25;;;;;;;43.60;26.50;;;;;;;2.29;81.01;99989.38;103871;1312;139651;-64
2021/11/25 06:30:57;;;;;;;42.90;27.00;;;;;;;2.29;81.03;99985.77;103245;1314;97968;-63
2021/11/25 06:33:29;;;;;;;45.10;26.70;;;;;;;2.27;81.03;99983.89;103262;1315;97961;-64
2021/11/25 06:36:04;;;;;;;41.70;27.30;;;;;;;2.26;80.89;99982.70;104591;1314;138450;-64
2021/11/25 06:38:36;;;;;;;43.90;27.70;;;;;;;2.24;80.86;99976.36;104156;1315;109218;-66
2021/11/25 06:41:09;;;;;;;43.50;27.90;;;;;;;2.24;81.11;99979.27;103280;1312;137945;-64
2021/11/25 06:43:41;;;;;;;41.70;26.00;;;;;;;2.27;80.82;99975.83;103324;1315;97838;-64
2021/11/25 06:46:13;;;;;;;42.80;26.40;;;;;;;2.33;80.75;99976.85;103314;1313;138793;-65
2021/11/25 06:48:45;;;;;;;39.00;25.70;;;;;;;2.42;80.81;99966.52;104162;1316;112509;-65
2021/11/25 06:51:17;;;;;;;42.10;27.50;;;;;;;2.57;80.62;99963.03;103147;1312;108430;-65
2021/11/25 06:53:50;;;;;;;42.00;26.70;;;;;;;2.71;80.45;99957.82;102843;1313;138334;-65
2021/11/25 06:56:22;;;;;;;47.00;27.90;;;;;;;2.85;80.02;99958.25;104450;1313;97422;-65
2021/11/25 06:58:56;;;;;;;46.20;28.50;;;;;;;2.99;79.74;99951.81;103433;1315;137789;-66
2021/11/25 07:01:28;;;;;;;43.80;28.10;;;;;;;3.10;79.40;99943.52;104648;1313;112661;-65
2021/11/25 07:04:00;;;;;;;44.60;28.10;;;;;;;3.22;78.78;99943.41;103703;1321;107955;-66
2021/11/25 07:06:34;;;;;;;42.30;26.20;;;;;;;3.33;78.36;99939.39;104264;1314;137686;-65
2021/11/25 07:09:06;;;;;;;42.60;26.10;;;;;;;3.44;78.18;99935.69;104677;1314;96333;-65
2021/11/25 07:11:38;;;;;;;38.10;24.30;;;;;;;3.60;77.81;99934.02;104096;1318;138416;-66
2021/11/25 07:14:10;;;;;;;36.10;24.50;;;;;;;3.76;77.06;99939.19;104728;1314;112522;-66
2021/11/25 07:16:42;;;;;;;36.90;24.40;;;;;;;3.93;76.49;99939.20;104273;1316;138272;-66
2021/11/25 07:19:14;;;;;;;36.50;24.10;;;;;;;4.08;75.90;99938.70;103589;1315;109145;-65
2021/11/25 07:21:46;;;;;;;38.70;24.90;;;;;;;4.19;75.52;99939.79;103044;1314;98277;-65
2021/11/25 07:24:23;;;;;;;40.70;25.30;;;;;;;4.29;75.20;99936.05;102888;1314;137692;-65
2021/11/25 07:26:55;;;;;;;39.60;25.70;;;;;;;4.37;74.44;99931.31;103308;1318;112788;-65
2021/11/25 07:29:28;;;;;;;41.90;27.30;;;;;;;4.45;75.03;99925.70;104616;1314;138746;-67
2021/11/25 07:32:00;;;;;;;44.10;27.90;;;;;;;4.63;74.59;99922.72;103847;1311;109068;-65
2021/11/25 07:34:32;;;;;;;36.70;25.60;;;;;;;4.70;73.52;99912.46;102959;1312;137262;-65
2021/11/25 07:37:05;;;;;;;36.90;24.30;;;;;;;4.79;72.97;99908.73;103279;1313;98471;-66
2021/11/25 07:39:37;;;;;;;43.20;25.90;;;;;;;4.87;72.71;99899.83;103243;1314;111482;-65
2021/11/25 07:42:09;;;;;;;37.50;25.00;;;;;;;4.93;72.20;99897.84;103157;1312;138439;-65
2021/11/25 07:44:43;;;;;;;39.80;23.40;;;;;;;5.00;71.79;99894.96;103087;1317;109015;-65
2021/11/25 07:47:19;;;;;;;40.70;24.10;;;;;;;5.08;71.04;99888.32;103149;1315;138195;-66
2021/11/25 07:49:52;;;;;;;40.30;23.10;;;;;;;5.18;70.01;99885.23;103301;1315;97806;-65
2021/11/25 07:52:24;;;;;;;36.80;24.30;;;;;;;5.22;70.09;99879.65;103268;1313;138135;-65
2021/11/25 07:54:55;;;;;;;40.10;23.40;;;;;;;5.29;70.41;99876.09;103209;1313;109140;-65
2021/11/25 07:57:27;;;;;;;45.20;23.80;;;;;;;5.40;70.00;99871.40;103237;1314;109335;-65
2021/11/25 08:00:00;;;;;;;40.10;25.10;;;;;;;5.48;69.08;99866.63;103081;1315;138742;-65
2021/11/25 08:02:33;;;;;;;34.20;23.70;;;;;;;5.53;68.97;99866.01;103091;1313;97840;-65
2021/11/25 08:05:06;;;;;;;38.10;25.10;;;;;;;5.55;68.54;99849.92;103089;1309;137548;-65
2021/11/25 08:07:39;;;;;;;34.40;24.30;;;;;;;5.60;68.12;99853.30;103266;1314;108928;-65
2021/11/25 08:10:14;;;;;;;37.90;24.40;;;;;;;5.66;68.26;99842.33;103181;1313;138578;-65
2021/11/25 08:12:46;;;;;;;35.60;24.00;;;;;;;5.74;67.27;99845.09;104594;1314;113044;-66
2021/11/25 08:15:18;;;;;;;39.30;24.70;;;;;;;5.78;67.83;99841.94;103876;1315;97913;-66
2021/11/25 08:17:51;;;;;;;32.30;23.50;;;;;;;5.81;67.11;99844.63;103335;1317;137581;-65
2021/11/25 08:20:27;;;;;;;37.30;24.50;;;;;;;5.84;67.06;99839.39;103359;1317;108621;-64
2021/11/25 08:22:59;;;;;;;41.70;24.40;;;;;;;5.92;67.24;99834.95;103170;1315;137939;-63
2021/11/25 08:25:32;;;;;;;41.80;24.70;;;;;;;5.99;66.24;99839.64;103443;1313;97903;-64
2021/11/25 08:28:05;;;;;;;39.50;24.70;;;;;;;6.02;66.02;99835.96;103094;1319;97865;-65
2021/11/25 08:30:38;;;;;;;37.20;24.60;;;;;;;6.05;65.80;99827.77;104463;1315;138261;-64
2021/11/25 08:33:10;;;;;;;37.20;24.70;;;;;;;6.15;66.45;99820.15;103487;1315;109216;-64
2021/11/25 08:35:42;;;;;;;38.80;26.10;;;;;;;6.27;65.99;99821.64;102879;1313;138057;-63
2021/11/25 08:38:14;;;;;;;37.50;25.80;;;;;;;6.35;65.14;99820.27;102997;1313;98742;-64
2021/11/25 08:40:46;;;;;;;40.00;25.90;;;;;;;6.40;65.36;99817.38;103318;1314;140946;-64
2021/11/25 08:43:19;;;;;;;41.20;25.90;;;;;;;6.46;64.51;99814.48;103325;1314;110174;-65
2021/11/25 08:45:51;;;;;;;38.50;25.80;;;;;;;6.45;64.05;99812.75;103331;1317;109642;-63
2021/11/25 08:48:23;;;;;;;36.40;25.50;;;;;;;6.49;63.75;99803.37;103273;1318;137734;-64
2021/11/25 08:50:56;;;;;;;40.60;25.90;;;;;;;6.58;63.90;99803.83;103355;1314;97974;-63
2021/11/25 08:53:28;;;;;;;38.50;24.80;;;;;;;6.65;64.09;99799.01;103327;1316;136566;-65
2021/11/25 08:56:00;;;;;;;39.50;24.50;;;;;;;6.71;63.27;99797.32;103208;1315;112621;-65
2021/11/25 08:58:32;;;;;;;42.00;25.80;;;;;;;6.74;62.81;99797.60;103209;1314;138075;-66
2021/11/25 09:01:05;;;;;;;40.50;26.10;;;;;;;6.75;62.54;99792.39;103270;1314;109045;-63
2021/11/25 09:03:38;;;;;;;38.20;25.40;;;;;;;6.80;63.03;99780.88;103393;1312;97917;-65
2021/11/25 09:06:11;;;;;;;35.10;25.30;;;;;;;6.89;63.16;99776.14;104615;1313;149654;-64
2021/11/25 09:08:44;;;;;;;36.90;25.00;;;;;;;6.99;62.92;99775.73;103610;1314;111337;-65
2021/11/25 09:11:16;;;;;;;37.60;25.70;;;;;;;7.07;62.70;99772.41;104519;1313;138747;-65
2021/11/25 09:13:48;;;;;;;35.60;25.20;;;;;;;7.18;63.04;99764.01;103981;1316;108846;-63
2021/11/25 09:16:20;;;;;;;34.80;24.20;;;;;;;7.33;62.64;99757.21;104293;1316;139769;-66
2021/11/25 09:18:52;;;;;;;36.30;24.80;;;;;;;7.44;61.67;99748.62;104497;1314;96608;-65
2021/11/25 09:21:24;;;;;;;32.70;23.80;;;;;;;7.60;61.99;99747.31;104488;1316;111468;-66
2021/11/25 09:23:56;;;;;;;32.10;23.40;;;;;;;7.71;62.16;99741.27;103329;1314;139332;-66
2021/11/25 09:26:28;;;;;;;31.10;22.60;;;;;;;7.91;62.42;99736.71;103187;1313;108709;-65
2021/11/25 09:29:01;;;;;;;33.90;23.00;;;;;;;8.01;61.65;99737.30;102654;1313;138082;-66
2021/11/25 09:31:34;;;;;;;40.90;26.40;;;;;;;8.20;62.28;99726.15;103224;1314;97940;-65
2021/11/25 09:34:08;;;;;;;34.00;23.80;;;;;;;8.49;61.36;99724.25;103180;1317;112214;-66
2021/11/25 09:36:41;;;;;;;38.40;24.90;;;;;;;8.56;58.97;99722.11;104441;1317;138715;-66
2021/11/25 09:39:12;;;;;;;36.80;24.70;;;;;;;8.57;59.53;99710.45;104456;1314;107898;-64
2021/11/25 09:41:44;;;;;;;34.40;23.30;;;;;;;8.61;58.86;99711.38;104198;1314;138600;-65
2021/11/25 09:44:17;;;;;;;33.10;22.80;;;;;;;8.59;58.85;99706.40;104361;1313;96488;-65
2021/11/25 09:46:53;;;;;;;32.50;23.10;;;;;;;8.60;59.24;99694.58;104201;1314;139037;-64
2021/11/25 09:49:27;;;;;;;34.00;22.90;;;;;;;8.71;59.04;99690.41;104492;1313;108863;-65
2021/11/25 09:52:02;;;;;;;34.90;23.30;;;;;;;8.83;60.12;99683.40;104085;1313;110142;-66
2021/11/25 09:54:34;;;;;;;36.40;23.20;;;;;;;8.98;58.56;99680.14;103138;1313;138040;-65
2021/11/25 09:57:07;;;;;;;32.20;23.10;;;;;;;9.04;57.85;99668.98;103220;1314;98050;-65
2021/11/25 09:59:39;;;;;;;36.70;23.50;;;;;;;8.94;57.22;99664.32;102947;1314;138304;-65
2021/11/25 10:02:12;;;;;;;34.70;23.40;;;;;;;8.85;57.28;99653.19;102960;1313;109028;-65
2021/11/25 10:04:44;;;;;;;36.00;23.80;;;;;;;8.76;57.45;99645.50;102968;1313;138719;-66
2021/11/25 10:07:31;;;;;;;31.80;22.40;;;;;;;8.75;57.48;99639.13;103150;1313;97904;-64
2021/11/25 10:10:25;;;;;;;34.40;22.80;;;;;;;8.72;57.88;99632.48;104531;1312;97025;-65
2021/11/25 10:12:59;;;;;;;32.20;22.60;;;;;;;8.73;57.53;99628.96;104586;1313;137273;-66
2021/11/25 10:15:38;;;;;;;31.40;21.30;;;;;;;8.67;57.13;99626.27;104699;1313;108966;-64
2021/11/25 10:18:14;;;;;;;29.20;21.80;;;;;;;8.57;56.40;99622.96;103291;1313;138650;-65
2021/11/25 10:20:51;;;;;;;35.80;22.90;;;;;;;8.38;56.63;99618.70;103224;1313;98499;-64
2021/11/25 10:23:26;;;;;;;34.00;22.30;;;;;;;8.26;56.89;99612.36;103190;1313;137740;-64
2021/11/25 10:26:01;;;;;;;30.90;22.90;;;;;;;8.15;56.96;99612.34;104384;1314;112562;-64
2021/11/25 10:28:40;;;;;;;37.60;23.60;;;;;;;8.05;57.90;99607.30;103364;1312;108472;-64
2021/11/25 10:31:17;;;;;;;33.60;23.40;;;;;;;8.14;57.82;99608.94;103880;1317;137699;-65
2021/11/25 10:33:54;;;;;;;36.80;24.60;;;;;;;8.19;58.09;99598.36;104652;1309;97417;-64
2021/11/25 10:36:51;;;;;;;35.20;24.40;;;;;;;8.20;57.54;99590.55;104549;1313;138184;-63
2021/11/25 10:39:47;;;;;;;37.00;24.10;;;;;;;8.12;58.08;99584.92;104674;1312;112616;-64
2021/11/25 10:42:30;;;;;;;37.90;25.60;;;;;;;8.13;58.31;99579.34;103817;1313;138547;-64
2021/11/25 10:45:10;;;;;;;37.10;26.00;;;;;;;8.13;57.86;99583.70;103333;1314;108030;-63
2021/11/25 10:47:43;;;;;;;37.20;25.70;;;;;;;8.03;58.01;99578.96;103033;1313;136712;-65
2021/11/25 10:50:16;;;;;;;39.10;25.40;;;;;;;7.96;58.17;99578.89;103361;1313;97847;-65
2021/11/25 10:52:49;;;;;;;37.10;25.30;;;;;;;7.94;57.79;99577.55;103369;1314;112269;-65
2021/11/25 10:55:24;;;;;;;35.50;25.50;;;;;;;7.81;57.81;99576.22;103273;1313;137930;-65
2021/11/25 10:57:57;;;;;;;36.50;25.40;;;;;;;7.66;58.10;99573.58;103010;1314;109227;-65
2021/11/25 11:00:34;;;;;;;40.10;26.10;;;;;;;7.58;58.39;99563.11;102997;1313;138256;-65
2021/11/25 11:03:09;;;;;;;36.80;25.50;;;;;;;7.53;58.68;99559.11;103717;1314;97875;-65
2021/11/25 11:05:56;;;;;;;40.80;26.50;;;;;;;7.48;58.73;99553.73;103261;1314;137813;-66
2021/11/25 11:08:30;;;;;;;41.40;28.10;;;;;;;7.43;59.08;99552.14;103347;1313;108965;-66
2021/11/25 11:11:05;;;;;;;45.70;26.90;;;;;;;7.43;59.05;99550.27;104556;1314;138485;-64
2021/11/25 11:13:43;;;;;;;41.00;27.00;;;;;;;7.47;59.89;99545.61;104378;1313;96476;-64
2021/11/25 11:16:27;;;;;;;40.90;28.40;;;;;;;7.57;59.69;99548.44;104439;1313;96266;-64
2021/11/25 11:19:01;;;;;;;45.00;28.40;;;;;;;7.58;59.52;99546.67;104310;1311;137541;-63
2021/11/25 11:21:37;;;;;;;43.90;28.50;;;;;;;7.65;59.98;99535.56;103310;1312;108976;-64
2021/11/25 11:24:11;;;;;;;44.10;27.50;;;;;;;7.76;60.01;99530.38;103216;1313;137915;-64
2021/11/25 11:26:46;;;;;;;44.00;28.30;;;;;;;7.81;59.89;99526.36;103347;1313;98283;-65
2021/11/25 11:29:21;;;;;;;39.30;27.20;;;;;;;7.77;58.90;99523.39;102790;1315;137813;-65
2021/11/25 11:31:56;;;;;;;41.50;26.50;;;;;;;7.70;58.78;99520.86;104524;1313;112552;-67
2021/11/25 11:34:29;;;;;;;43.90;28.60;;;;;;;7.57;59.19;99523.87;104267;1309;109135;-65
2021/11/25 11:37:03;;;;;;;43.10;26.20;;;;;;;7.51;59.64;99519.71;103035;1313;137915;-65